Lorida, Florida
Current Conditions -  °F | °C
As of 7:15 AM on Monday 26 Jan 2015 (Local Time) from KOBE Reporting Station
Scattered Clouds Scattered Clouds  
Wind Chill: 57°   Ceiling: Unl
Heat Index: 57°   Visibility: 10mi
Dew Point: 54°   Wind: 10mph
Humidity: 88%   Direction: 200°SSW
Pressure: 29.88"   Gusts: NA
Location:  27.44°N, 81.25°W
Report Text: KOBE 261215Z AUTO 20009KT 10SM SCT032 14/12 A2988 RMK AO2
Loading
Personal Weather Stations






























Interactive Weather Map New forecast layout! Learn more

10-Day Weather Forecast

Advertisements
Track Severe Weather on mobile